Latest Weather Observations for Richmond

IDN60901

Issued at 4:31 pm EST Sunday 2 August 2015 (issued every 10 minutes, with the page automatically refreshed every 10 minutes)

About weather observations | Map of Sydney area stations | Latest observations for Sydney area | Other Formats
Station Details ID: 067105 Name: RICHMOND RAAF Lat: -33.60 Lon: 150.78 Height: 19.0 m
Data from the previous 72 hours. | See also: Recent months at Richmond
Date/Time
EST
Tmp

°C
App
Tmp
°C
Dew
Point
°C
Rel
Hum
%
Delta-T

°C
Wind Press
QNH
hPa
Press
MSL
hPa
Rain
since
9 am
mm
Dir
 
Spd
km/h
Gust
km/h
Spd
kts
Gust
kts
02/04:00pm 23.9 18.8 6.2 32 9.1 NW 22 32 12 17 1009.9 1009.9 0.0
02/03:30pm 24.3 18.5 6.1 31 9.3 NW 26 37 14 20 1009.8 1009.8 0.0
02/03:00pm 24.6 17.7 6.4 31 9.4 NW 32 48 17 26 1009.8 1009.8 0.0
02/02:30pm 24.5 17.7 6.7 32 9.2 NW 32 48 17 26 1009.8 1009.8 0.0
02/02:25pm 24.4 18.2 6.2 31 9.4 NW 28 46 15 25 1009.9 1009.9 0.0
02/02:00pm 24.1 22.2 8.9 38 8.2 SSW 9 15 5 8 1010.6 1010.6 0.0
02/01:30pm 22.1 19.9 10.9 49 6.2 SE 13 17 7 9 1011.0 1011.0 0.0
02/01:00pm 21.6 19.5 11.0 51 5.9 S 13 17 7 9 1011.3 1011.3 0.0
02/12:00pm 17.5 15.7 9.4 59 4.2 S 9 13 5 7 1012.2 1012.2 0.0
02/11:30am 16.5 14.5 8.5 59 4.1 S 9 11 5 6 1012.9 1012.9 0.0
02/10:00am 13.3 11.0 7.3 67 2.9 SW 9 13 5 7 1014.9 1014.9 0.0
02/09:30am 12.7 10.1 7.8 72 2.4 SW 11 15 6 8 1015.1 1015.1 0.0
02/09:00am 11.6 9.6 7.3 75 2.1 SW 7 11 4 6 1015.4 1015.4 0.0
02/08:30am 10.1 7.8 7.5 84 1.2 SW 9 11 5 6 1015.6 1015.6 0.0
02/08:00am 8.4 6.3 6.7 89 0.8 SW 7 13 4 7 1015.7 1015.7 0.0
02/07:30am 6.8 4.5 5.9 94 0.4 SW 7 11 4 6 1015.4 1015.4 0.0
02/07:00am 5.5 3.0 4.8 95 0.3 SSW 7 9 4 5 1015.1 1015.1 0.0
02/06:30am 6.0 3.8 5.3 95 0.3 NE 6 9 3 5 1014.9 1014.9 0.0
02/05:30am 6.2 5.2 5.5 95 0.3 CALM 0 0 0 0 1015.2 1015.2 0.0
02/05:00am 6.1 5.0 4.9 92 0.5 CALM 0 0 0 0 1015.4 1015.4 0.0
02/04:30am 7.8 5.7 5.9 88 0.9 N 6 9 3 5 1015.4 1015.4 0.0
02/04:00am 7.9 5.5 5.2 83 1.2 NNE 7 9 4 5 1015.6 1015.6 0.0
02/03:30am 9.5 7.4 5.9 78 1.7 ENE 6 7 3 4 1015.9 1015.9 0.0
02/03:00am 9.3 6.3 6.2 81 1.4 NE 11 13 6 7 1016.0 1016.0 0.0
02/02:30am 7.2 4.5 5.7 90 0.7 N 9 11 5 6 1016.3 1016.3 0.0
02/02:00am 7.2 6.2 5.8 91 0.6 CALM 0 0 0 0 1016.5 1016.5 0.0
02/01:30am 7.2 6.2 5.7 90 0.7 CALM 0 0 0 0 1016.7 1016.7 0.0
02/01:00am 7.2 6.2 5.5 89 0.8 CALM 0 0 0 0 1016.7 1016.7 0.0
02/12:30am 8.0 5.8 5.3 83 1.2 N 6 7 3 4 1016.7 1016.7 0.0
 
Date/Time
EST
Tmp

°C
App
Tmp
°C
Dew
Point
°C
Rel
Hum
%
Delta-T

°C
Wind Press
QNH
hPa
Press
MSL
hPa
Rain
since
9 am
mm
Dir
 
Spd
km/h
Gust
km/h
Spd
kts
Gust
kts
01/11:30pm 8.5 7.5 5.8 83 1.2 CALM 0 0 0 0 1016.9 1016.9 0.0
01/11:00pm 8.9 7.9 5.8 81 1.4 CALM 0 0 0 0 1017.3 1017.3 0.0
01/10:30pm 8.3 5.9 5.4 82 1.3 S 7 9 4 5 1017.4 1017.4 0.0
01/10:00pm 10.1 8.1 6.1 76 1.8 SW 6 9 3 5 1017.3 1017.3 0.0
01/09:30pm 11.4 9.4 6.3 71 2.4 N 6 9 3 5 1017.4 1017.4 0.0
01/09:00pm 11.3 10.4 6.0 70 2.5 CALM 0 0 0 0 1017.5 1017.5 0.0
01/08:30pm 12.7 10.7 6.1 64 3.1 ESE 6 9 3 5 1017.3 1017.3 0.0
01/08:00pm 13.7 11.8 5.1 56 4.0 NNW 4 9 2 5 1017.0 1017.0 0.0
01/07:30pm 15.2 12.9 5.7 53 4.5 NNW 7 11 4 6 1016.8 1016.8 0.0
01/07:00pm 16.0 13.7 5.9 51 4.9 N 7 11 4 6 1016.6 1016.6 0.0
01/06:30pm 16.5 14.3 6.1 50 5.1 N 7 13 4 7 1016.3 1016.3 0.0
01/05:30pm 17.1 13.8 4.8 44 5.9 N 11 17 6 9 1015.7 1015.7 0.0
01/05:00pm 18.6 14.6 4.8 40 6.6 N 15 20 8 11 1015.5 1015.5 0.0
01/04:30pm 19.9 15.4 4.4 36 7.5 NNW 17 22 9 12 1015.5 1015.5 0.0
01/04:00pm 20.3 15.2 3.9 34 7.8 NNW 20 28 11 15 1015.5 1015.5 0.0
01/03:30pm 20.1 15.0 4.2 35 7.6 NNW 20 24 11 13 1015.8 1015.8 0.0
01/03:00pm 20.0 14.0 3.3 33 7.9 NW 24 32 13 17 1016.1 1016.1 0.0
01/02:30pm 21.6 16.3 5.1 34 8.2 NW 22 32 12 17 1015.8 1015.8 0.0
01/02:00pm 20.0 15.0 4.5 36 7.5 NNW 20 32 11 17 1015.9 1015.9 0.0
01/01:30pm 20.7 15.3 4.3 34 7.9 NNW 22 30 12 16 1016.1 1016.1 0.0
01/01:00pm 22.0 16.6 4.6 32 8.5 NW 22 35 12 19 1016.5 1016.5 0.0
01/12:31pm 21.6 14.7 2.8 29 8.9 NW 28 46 15 25 1016.3 1016.3 0.0
01/12:30pm 21.8 15.5 3.9 31 8.7 NW 26 46 14 25 1016.3 1016.3 0.0
01/12:00pm 21.5 17.0 4.1 32 8.4 NW 17 35 9 19 1016.6 1016.6 0.0
01/11:30am 18.7 16.9 7.2 47 5.8 N 6 9 3 5 1017.4 1017.4 0.0
01/11:00am 17.9 15.4 6.4 47 5.7 N 9 17 5 9 1018.1 1018.1 0.0
01/10:30am 17.1 14.0 7.2 52 4.9 NNE 13 19 7 10 1018.5 1018.5 0.0
01/10:00am 15.8 11.8 6.5 54 4.5 NNE 17 20 9 11 1018.6 1018.6 0.0
01/09:30am 13.9 10.4 7.2 64 3.3 NE 15 19 8 10 1018.7 1018.7 0.0
01/09:00am 12.9 10.5 6.9 67 2.9 NNE 9 13 5 7 1018.8 1018.8 0.0
01/08:30am 10.0 8.4 6.2 77 1.8 ESE 4 7 2 4 1018.9 1018.9 0.0
01/08:00am 9.0 6.4 5.9 81 1.4 NE 9 13 5 7 1018.4 1018.4 0.0
01/07:30am 6.5 3.9 6.2 98 0.1 NNE 9 15 5 8 1018.3 1018.3 0.0
01/07:00am 3.3 0.7 3.0 98 0.1 SSE 6 9 3 5 1018.5 1018.5 0.0
01/06:30am 3.7 1.9 3.4 98 0.1 WSW 2 9 1 5 1018.1 1018.1 0.0
01/06:00am 3.5 2.0 3.2 98 0.1 CALM 0 0 0 0 1017.9 1017.9 0.0
01/05:30am 3.1 1.6 2.8 98 0.1 CALM 0 6 0 3 1018.3 1018.3 0.0
01/05:00am 2.8 1.2 2.4 97 0.2 CALM 0 0 0 0 1018.1 1018.1 0.0
01/04:30am 2.9 1.3 2.5 97 0.2 CALM 0 0 0 0 1018.4 1018.4 0.0
01/04:00am 3.3 0.7 3.0 98 0.1 WSW 6 9 3 5 1018.9 1018.9 0.0
01/03:30am 3.5 0.9 3.2 98 0.1 WSW 6 9 3 5 1019.2 1019.2 0.0
01/03:00am 2.9 1.0 2.6 98 0.1 WSW 2 9 1 5 1019.1 1019.1 0.0
01/02:30am 4.0 2.6 3.7 98 0.1 CALM 0 0 0 0 1019.4 1019.4 0.0
01/02:03am 3.6 2.2 3.3 98 0.1 CALM 0 0 0 0 1019.7 1019.7 0.0
01/02:00am 3.6 2.2 3.3 98 0.1 CALM 0 0 0 0 1019.8 1019.8 0.0
01/01:57am 3.8 2.4 3.5 98 0.1 CALM 0 0 0 0 1019.8 1019.8 0.0
01/01:30am 3.8 1.6 3.5 98 0.1 NNE 4 7 2 4 1019.8 1019.8 0.0
01/01:23am 4.2 1.7 3.9 98 0.1 N 6 7 3 4 1020.0 1020.0 0.0
01/01:15am 3.9 1.7 3.6 98 0.1 NW 4 9 2 5 1020.1 1020.1 0.0
01/01:00am 4.5 2.1 4.1 97 0.2 ENE 6 11 3 6 1020.1 1020.1 0.0
01/12:30am 4.2 2.0 3.5 95 0.3 N 4 6 2 3 1020.6 1020.6 0.0
01/12:00am 5.2 3.0 3.5 89 0.7 S 4 7 2 4 1021.1 1021.1 0.0
 
Date/Time
EST
Tmp

°C
App
Tmp
°C
Dew
Point
°C
Rel
Hum
%
Delta-T

°C
Wind Press
QNH
hPa
Press
MSL
hPa
Rain
since
9 am
mm
Dir
 
Spd
km/h
Gust
km/h
Spd
kts
Gust
kts
31/11:30pm 5.8 4.2 4.3 90 0.6 N 2 6 1 3 1021.6 1021.6 0.0
31/11:00pm 6.6 5.3 4.3 85 1.0 CALM 0 0 0 0 1021.6 1021.6 0.0
31/10:30pm 7.7 6.4 6.0 89 0.8 NW 2 7 1 4 1021.5 1021.5 0.0
31/10:00pm 7.1 4.7 5.4 89 0.8 N 7 13 4 7 1021.5 1021.5 0.0
31/09:30pm 7.7 5.2 4.7 81 1.3 W 7 9 4 5 1021.3 1021.3 0.0
31/09:00pm 8.7 6.5 6.3 85 1.1 SSW 7 11 4 6 1021.0 1021.0 0.0
31/08:30pm 9.0 7.0 6.3 83 1.2 NW 6 9 3 5 1020.7 1020.7 0.0
31/08:00pm 9.3 8.2 5.1 75 1.9 CALM 0 0 0 0 1020.7 1020.7 0.0
31/07:30pm 10.3 8.1 5.5 72 2.2 WSW 6 9 3 5 1020.6 1020.6 0.0
31/07:00pm 11.1 9.6 5.2 67 2.7 NW 2 9 1 5 1020.4 1020.4 0.0
31/06:30pm 12.7 10.0 5.6 62 3.3 N 9 15 5 8 1020.0 1020.0 0.0
31/06:00pm 11.8 9.0 5.0 63 3.1 ENE 9 13 5 7 1019.7 1019.7 0.0
31/05:30pm 15.8 13.1 5.7 51 4.8 E 9 11 5 6 1019.3 1019.3 0.0
31/05:00pm 17.8 15.1 5.7 45 5.9 E 9 13 5 7 1019.1 1019.1 0.0
31/04:30pm 18.7 15.6 5.5 42 6.4 E 11 15 6 8 1018.9 1018.9 0.0
31/04:00pm 19.1 15.5 5.2 40 6.7 ESE 13 17 7 9 1019.0 1019.0 0.0
31/03:30pm 19.3 15.7 5.0 39 6.9 E 13 19 7 10 1019.0 1019.0 0.0
31/03:00pm 19.8 16.9 4.7 37 7.3 NE 9 19 5 10 1019.0 1019.0 0.0
31/02:30pm 19.8 17.4 5.1 38 7.2 NNE 7 15 4 8 1019.2 1019.2 0.0
31/02:00pm 19.8 16.5 4.7 37 7.3 NNE 11 17 6 9 1019.3 1019.3 0.0
31/01:30pm 19.1 16.2 4.5 38 7.0 NNW 9 20 5 11 1019.6 1019.6 0.0
31/01:00pm 19.6 16.1 5.3 39 7.0 N 13 30 7 16 1020.0 1020.0 0.0
31/12:30pm 18.8 15.4 3.8 37 7.1 N 11 15 6 8 1020.4 1020.4 0.0
31/12:00pm 18.6 15.5 3.6 37 7.0 W 9 24 5 13 1021.0 1021.0 0.0
31/11:30am 17.9 13.9 2.6 36 7.0 W 13 22 7 12 1021.2 1021.2 0.0
31/11:00am 18.1 14.3 3.9 39 6.7 WNW 13 20 7 11 1021.6 1021.6 0.0
31/10:30am 17.5 14.3 5.1 44 6.0 NNW 11 19 6 10 1021.7 1021.7 0.0
31/10:00am 16.0 13.0 5.9 51 4.9 NW 11 15 6 8 1021.8 1021.8 0.0
31/09:30am 14.1 12.8 6.2 59 3.8 W 2 7 1 4 1022.0 1022.0 0.0
31/09:00am 13.3 10.9 7.1 66 3.0 NNW 9 11 5 6 1021.9 1021.9 0.0
31/08:30am 11.7 8.7 6.2 69 2.6 N 11 15 6 8 1021.8 1021.8 0.0
31/08:00am 11.1 9.9 6.5 73 2.2 NNE 2 9 1 5 1021.6 1021.6 0.0
31/07:30am 9.0 7.0 6.1 82 1.3 N 6 11 3 6 1021.2 1021.2 0.0
31/07:00am 7.6 5.0 4.4 80 1.4 NNE 7 9 4 5 1021.0 1021.0 0.0
31/06:30am 8.0 5.5 4.9 81 1.4 N 7 9 4 5 1020.6 1020.6 0.0
31/06:00am 8.6 6.3 4.8 77 1.7 NNW 6 9 3 5 1019.9 1019.9 0.0
31/05:30am 9.4 6.4 4.2 70 2.3 WNW 9 11 5 6 1019.6 1019.6 0.0
31/05:00am 10.9 7.3 5.2 68 2.6 NW 13 17 7 9 1019.4 1019.4 0.0
31/04:30am 11.2 8.3 4.7 64 2.9 N 9 13 5 7 1019.2 1019.2 0.0
31/04:00am 10.1 7.3 3.4 63 2.9 NNE 7 9 4 5 1019.1 1019.1 0.0
31/03:30am 10.8 7.6 3.1 59 3.4 NE 9 13 5 7 1018.9 1018.9 0.0
31/03:00am 11.7 8.7 4.0 59 3.4 NNE 9 11 5 6 1019.1 1019.1 0.0
31/02:30am 12.7 10.3 4.2 56 3.9 N 6 9 3 5 1019.1 1019.1 0.0
31/02:00am 12.2 8.8 4.2 58 3.6 NNW 11 15 6 8 1019.1 1019.1 0.0
31/01:30am 12.5 9.0 3.7 55 3.9 N 11 17 6 9 1019.1 1019.1 0.0
31/01:00am 12.8 9.4 4.0 55 4.0 NW 11 17 6 9 1019.3 1019.3 0.0
31/12:30am 12.6 9.2 4.1 56 3.8 NW 11 15 6 8 1019.1 1019.1 0.0
31/12:00am 12.8 8.6 4.0 55 4.0 NNW 15 22 8 12 1018.8 1018.8 0.0
 
Date/Time
EST
Tmp

°C
App
Tmp
°C
Dew
Point
°C
Rel
Hum
%
Delta-T

°C
Wind Press
QNH
hPa
Press
MSL
hPa
Rain
since
9 am
mm
Dir
 
Spd
km/h
Gust
km/h
Spd
kts
Gust
kts
30/11:30pm 13.3 9.7 5.0 57 3.8 NNE 13 19 7 10 1018.8 1018.8 0.0
30/11:00pm 12.7 9.5 4.9 59 3.6 NNE 11 17 6 9 1018.8 1018.8 0.0
30/10:30pm 13.3 9.6 4.7 56 4.0 N 13 17 7 9 1019.3 1019.3 0.0
30/10:00pm 13.9 9.5 4.8 54 4.2 N 17 24 9 13 1019.1 1019.1 0.0
30/09:30pm 13.5 9.8 4.6 55 4.1 NNW 13 17 7 9 1019.6 1019.6 0.0
30/09:00pm 13.4 9.3 4.6 55 4.0 NW 15 19 8 10 1019.9 1019.9 0.0
30/08:30pm 13.5 10.4 3.8 52 4.4 NNW 9 15 5 8 1019.9 1019.9 0.0
30/08:00pm 13.8 11.2 4.1 52 4.4 NW 7 13 4 7 1019.9 1019.9 0.0
30/07:30pm 13.6 10.3 4.5 54 4.2 N 11 15 6 8 1020.1 1020.1 0.0
30/07:00pm 15.1 11.8 4.8 50 4.8 NNW 11 15 6 8 1020.0 1020.0 0.0
30/06:30pm 14.9 11.2 4.6 50 4.8 N 13 17 7 9 1019.5 1019.5 0.0
30/06:00pm 15.5 10.7 4.5 48 5.1 N 19 22 10 12 1019.2 1019.2 0.0
30/05:30pm 15.8 10.8 4.8 48 5.2 N 20 28 11 15 1018.9 1018.9 0.0
30/05:00pm 16.1 11.2 5.1 48 5.2 N 20 26 11 14 1018.7 1018.7 0.0

Latest Capital City Observations: Canberra | Sydney | Melbourne | Brisbane | Adelaide | Perth | Hobart | Darwin

Other Formats:

Comma delimited format used in spreadsheet applications
http://www.bom.gov.au/fwo/IDN60901/IDN60901.95753.axf

JavaScript Object Notation format (JSON) in row-major order
http://www.bom.gov.au/fwo/IDN60901/IDN60901.95753.json